createdAt,value
2018-05-17T00:02:09.380Z,79.95
2018-05-17T00:04:42.897Z,78.93
2018-05-17T00:07:16.509Z,78.64
2018-05-17T00:09:50.072Z,78.45
2018-05-17T00:12:23.620Z,78.07
2018-05-17T00:14:57.324Z,78.27
2018-05-17T00:17:31.082Z,78.53
2018-05-17T00:20:04.653Z,78.07
2018-05-17T00:22:38.438Z,78.51
2018-05-17T00:25:12.332Z,78.80
2018-05-17T00:27:46.073Z,78.58
2018-05-17T00:30:19.668Z,78.83
2018-05-17T00:32:53.209Z,79.07
2018-05-17T00:35:27.027Z,79.18
2018-05-17T00:38:00.775Z,79.10
2018-05-17T00:40:34.344Z,79.32
2018-05-17T00:43:07.875Z,78.84
2018-05-17T00:45:41.449Z,78.81
2018-05-17T00:48:15.256Z,78.47
2018-05-17T00:50:48.810Z,79.11
2018-05-17T00:53:31.539Z,79.36
2018-05-17T00:56:05.101Z,79.33
2018-05-17T00:58:38.636Z,79.27
2018-05-17T01:01:12.199Z,79.20
2018-05-17T01:03:45.802Z,78.73
2018-05-17T01:06:19.536Z,78.60
2018-05-17T01:08:53.059Z,78.35
2018-05-17T01:11:26.651Z,78.82
2018-05-17T01:14:00.254Z,78.73
2018-05-17T01:16:33.840Z,78.85
2018-05-17T01:19:07.360Z,78.47
2018-05-17T01:21:40.927Z,78.60
2018-05-17T01:24:14.454Z,78.43
2018-05-17T01:26:47.988Z,78.73
2018-05-17T01:29:21.626Z,78.91
2018-05-17T01:31:55.240Z,79.02
2018-05-17T01:34:28.768Z,78.77
2018-05-17T01:37:14.202Z,78.76
2018-05-17T01:39:47.875Z,79.27
2018-05-17T01:42:21.477Z,78.64
2018-05-17T01:44:55.163Z,78.65
2018-05-17T01:47:28.804Z,78.51
2018-05-17T01:50:02.379Z,78.84
2018-05-17T01:52:36.107Z,79.08
2018-05-17T01:55:09.667Z,78.64
2018-05-17T01:57:43.332Z,78.75
2018-05-17T02:00:17.056Z,78.22
2018-05-17T02:02:50.584Z,78.56
2018-05-17T02:05:24.183Z,78.59
2018-05-17T02:07:57.864Z,78.68
2018-05-17T02:10:31.691Z,79.38
2018-05-17T02:13:05.241Z,79.65
2018-05-17T02:15:39.316Z,79.90
2018-05-17T02:18:13.063Z,80.03
2018-05-17T02:20:46.703Z,80.47
2018-05-17T02:23:20.359Z,80.24
2018-05-17T02:25:54.291Z,80.48
2018-05-17T02:28:28.115Z,80.71
2018-05-17T02:31:01.708Z,80.68
2018-05-17T02:33:35.312Z,81.46
2018-05-17T02:36:08.816Z,82.25
2018-05-17T02:38:42.459Z,82.58
2018-05-17T02:41:16.071Z,82.72
2018-05-17T02:43:49.692Z,83.13
2018-05-17T02:46:23.216Z,83.17
2018-05-17T02:48:56.836Z,83.20
2018-05-17T02:51:30.576Z,83.12
2018-05-17T02:54:04.247Z,82.99
2018-05-17T02:56:37.847Z,83.51
2018-05-17T02:59:11.454Z,83.60
2018-05-17T03:01:44.952Z,83.30
2018-05-17T03:04:18.633Z,83.21
2018-05-17T03:06:52.236Z,83.04
2018-05-17T03:09:25.947Z,82.14
2018-05-17T03:11:59.612Z,80.97
2018-05-17T03:14:33.204Z,80.93
2018-05-17T03:17:06.845Z,81.32
2018-05-17T03:19:40.511Z,82.26
2018-05-17T03:22:14.164Z,82.80
2018-05-17T03:24:47.839Z,81.27
2018-05-17T03:27:21.464Z,81.17
2018-05-17T03:29:55.059Z,81.43
2018-05-17T03:32:28.796Z,81.20
2018-05-17T03:35:02.464Z,81.57
2018-05-17T03:37:36.071Z,82.02
2018-05-17T03:40:09.744Z,82.05
2018-05-17T03:42:43.356Z,82.39
2018-05-17T03:45:17.128Z,81.43
2018-05-17T03:47:50.712Z,81.79
2018-05-17T03:50:24.328Z,82.21
2018-05-17T03:52:58.031Z,82.09
2018-05-17T03:55:31.659Z,81.77
2018-05-17T03:58:05.307Z,82.51
2018-05-17T04:00:50.889Z,82.35
2018-05-17T04:03:36.624Z,81.98
2018-05-17T04:06:22.611Z,82.27
2018-05-17T04:08:56.316Z,82.35
2018-05-17T04:11:29.944Z,82.39
2018-05-17T04:14:03.529Z,82.59
2018-05-17T04:16:37.184Z,82.54
2018-05-17T04:19:10.861Z,82.36
2018-05-17T04:21:44.460Z,82.18
2018-05-17T04:24:18.084Z,82.28
2018-05-17T04:26:51.692Z,82.34
2018-05-17T04:29:25.268Z,82.24
2018-05-17T04:31:58.935Z,81.74
2018-05-17T04:34:32.610Z,81.66
2018-05-17T04:37:06.138Z,81.49
2018-05-17T04:39:39.836Z,81.24
2018-05-17T04:42:13.508Z,81.55
2018-05-17T04:44:47.104Z,81.47
2018-05-17T04:47:20.959Z,81.02
2018-05-17T04:49:54.544Z,80.88
2018-05-17T04:52:28.363Z,80.76
2018-05-17T04:55:02.056Z,80.14
2018-05-17T04:57:35.840Z,79.45
2018-05-17T05:00:09.443Z,79.29
2018-05-17T05:02:43.060Z,79.48
2018-05-17T05:05:16.645Z,79.11
2018-05-17T05:07:50.403Z,79.36
2018-05-17T05:10:24.047Z,78.88
2018-05-17T05:12:57.663Z,78.78
2018-05-17T05:15:31.204Z,78.47
2018-05-17T05:18:04.760Z,77.99
2018-05-17T05:20:38.707Z,77.70
2018-05-17T05:23:12.244Z,77.84
2018-05-17T05:25:45.961Z,77.64
2018-05-17T05:28:19.524Z,76.73
2018-05-17T05:30:53.193Z,76.67
2018-05-17T05:33:26.791Z,76.36
2018-05-17T05:36:00.489Z,76.20
2018-05-17T05:38:34.072Z,76.51
2018-05-17T05:41:07.697Z,75.72
2018-05-17T05:43:41.307Z,76.08
2018-05-17T05:46:14.992Z,75.25
2018-05-17T05:48:48.710Z,75.00
2018-05-17T05:51:22.471Z,74.87
2018-05-17T05:53:56.100Z,74.31
2018-05-17T05:56:29.700Z,73.32
2018-05-17T05:59:03.332Z,73.53
2018-05-17T06:01:37.261Z,73.84
2018-05-17T06:04:10.914Z,73.28
2018-05-17T06:06:44.528Z,73.92
2018-05-17T06:09:18.140Z,73.97
2018-05-17T06:11:51.744Z,73.21
2018-05-17T06:14:25.368Z,73.22
2018-05-17T06:16:59.036Z,72.45
2018-05-17T06:19:32.652Z,72.64
2018-05-17T06:22:06.316Z,72.33
2018-05-17T06:24:40.075Z,72.54
2018-05-17T06:27:14.099Z,72.72
2018-05-17T06:29:47.695Z,72.28
2018-05-17T06:32:21.372Z,70.81
2018-05-17T06:34:54.881Z,70.67
2018-05-17T06:37:28.647Z,69.25
2018-05-17T06:40:02.369Z,69.59
2018-05-17T06:42:36.032Z,69.37
2018-05-17T06:45:09.603Z,68.50
2018-05-17T06:47:43.202Z,67.19
2018-05-17T06:50:16.888Z,67.92
2018-05-17T06:52:50.527Z,67.18
2018-05-17T06:55:24.289Z,67.29
2018-05-17T06:57:57.907Z,66.60
2018-05-17T07:00:31.522Z,64.31
2018-05-17T07:03:05.215Z,64.39
2018-05-17T07:05:39.451Z,65.46
2018-05-17T07:08:13.120Z,64.56
2018-05-17T07:10:46.629Z,63.00
2018-05-17T07:13:20.143Z,60.64
2018-05-17T07:15:53.884Z,60.55
2018-05-17T07:18:27.679Z,60.06
2018-05-17T07:21:01.087Z,58.93
2018-05-17T07:23:34.884Z,59.24
2018-05-17T07:26:08.568Z,59.72
2018-05-17T07:28:42.083Z,60.52
2018-05-17T07:31:15.734Z,62.19
2018-05-17T07:33:49.160Z,62.25
2018-05-17T07:36:22.920Z,56.11
2018-05-17T07:38:56.453Z,53.90
2018-05-17T07:41:30.043Z,49.44
2018-05-17T07:44:03.596Z,47.92
2018-05-17T07:46:37.201Z,49.62
2018-05-17T07:49:11.103Z,46.16
2018-05-17T07:51:44.779Z,44.51
2018-05-17T07:54:18.356Z,43.81
2018-05-17T07:56:51.933Z,50.22
2018-05-17T07:59:25.627Z,52.79
2018-05-17T08:01:59.251Z,52.84
2018-05-17T08:04:32.987Z,53.43
2018-05-17T08:07:06.811Z,50.87
2018-05-17T08:09:40.492Z,43.97
2018-05-17T08:12:14.216Z,43.08
2018-05-17T08:14:47.975Z,42.49
2018-05-17T08:17:21.640Z,42.37
2018-05-17T08:19:55.250Z,43.78
2018-05-17T08:22:28.796Z,46.00
2018-05-17T08:25:02.499Z,42.94
2018-05-17T08:27:36.311Z,45.25
2018-05-17T08:30:09.962Z,44.65
2018-05-17T08:32:43.637Z,45.15
2018-05-17T08:35:17.240Z,41.47
2018-05-17T08:37:50.808Z,41.14
2018-05-17T08:40:24.572Z,41.67
2018-05-17T08:42:58.216Z,44.43
2018-05-17T08:45:31.822Z,47.59
2018-05-17T08:48:05.643Z,48.02
2018-05-17T08:50:39.496Z,47.85
2018-05-17T08:53:13.156Z,48.75
2018-05-17T08:55:47.111Z,49.53
2018-05-17T08:58:20.803Z,48.34
2018-05-17T09:00:54.396Z,49.35
2018-05-17T09:03:27.986Z,47.57
2018-05-17T09:06:01.588Z,47.21
2018-05-17T09:08:35.163Z,42.71
2018-05-17T09:11:08.764Z,47.74
2018-05-17T09:13:42.345Z,49.07
2018-05-17T09:16:16.005Z,49.46
2018-05-17T09:18:49.843Z,48.34
2018-05-17T09:21:23.452Z,47.62
2018-05-17T09:23:57.202Z,46.84
2018-05-17T09:26:30.908Z,45.13
2018-05-17T09:29:04.647Z,43.77
2018-05-17T09:31:38.112Z,41.04
2018-05-17T09:34:11.755Z,38.17
2018-05-17T09:36:45.312Z,38.39
2018-05-17T09:39:18.940Z,41.65
2018-05-17T09:41:52.520Z,41.07
2018-05-17T09:44:26.017Z,40.56
2018-05-17T09:46:59.863Z,36.52
2018-05-17T09:49:33.343Z,35.17
2018-05-17T09:52:07.039Z,40.03
2018-05-17T09:54:40.592Z,42.53
2018-05-17T09:57:14.285Z,41.80
2018-05-17T09:59:47.824Z,41.96
2018-05-17T10:02:21.456Z,43.36
2018-05-17T10:04:55.137Z,41.18
2018-05-17T10:07:28.694Z,41.19
2018-05-17T10:10:02.241Z,40.05
2018-05-17T10:12:35.840Z,35.86
2018-05-17T10:15:09.508Z,36.18
2018-05-17T10:17:43.119Z,36.50
2018-05-17T10:20:16.831Z,34.32
2018-05-17T10:22:50.613Z,36.02
2018-05-17T10:25:24.156Z,32.97
2018-05-17T10:27:57.712Z,39.37
2018-05-17T10:30:31.348Z,38.50
2018-05-17T10:33:04.927Z,39.14
2018-05-17T10:35:38.661Z,37.50
2018-05-17T10:38:12.239Z,35.33
2018-05-17T10:40:45.875Z,32.81
2018-05-17T10:43:19.459Z,36.16
2018-05-17T10:48:55.921Z,33.45
2018-05-17T10:51:29.427Z,33.20
2018-05-17T10:54:03.005Z,34.85
2018-05-17T10:56:36.803Z,32.77
2018-05-17T10:59:10.391Z,32.80
2018-05-17T11:01:43.984Z,31.37
2018-05-17T11:04:17.592Z,32.75
2018-05-17T11:06:51.224Z,34.28
2018-05-17T11:09:25.060Z,34.07
2018-05-17T11:11:58.629Z,34.30
2018-05-17T11:14:32.440Z,34.67
2018-05-17T11:17:06.060Z,34.83
2018-05-17T11:19:39.664Z,33.38
2018-05-17T11:22:13.243Z,32.60
2018-05-17T11:24:46.927Z,33.51
2018-05-17T11:27:20.476Z,32.47
2018-05-17T11:29:54.207Z,30.89
2018-05-17T11:32:27.775Z,30.44
2018-05-17T11:35:01.585Z,32.06
2018-05-17T11:37:35.224Z,32.94
2018-05-17T11:40:09.012Z,35.23
2018-05-17T11:42:42.524Z,36.77
2018-05-17T11:45:17.582Z,35.47
2018-05-17T11:47:51.247Z,39.18
2018-05-17T11:50:25.048Z,40.02
2018-05-17T11:52:58.799Z,41.25
2018-05-17T11:55:32.384Z,41.26
2018-05-17T11:58:06.220Z,40.10
2018-05-17T12:00:39.955Z,39.88
2018-05-17T12:03:13.618Z,40.71
2018-05-17T12:05:47.373Z,43.08
2018-05-17T12:08:21.173Z,44.72
2018-05-17T12:10:54.924Z,45.41
2018-05-17T12:13:28.463Z,41.27
2018-05-17T12:16:02.172Z,40.51
2018-05-17T12:18:35.788Z,42.89
2018-05-17T12:21:09.499Z,41.70
2018-05-17T12:23:43.145Z,45.39
2018-05-17T12:26:16.695Z,46.82
2018-05-17T12:28:50.359Z,45.89
2018-05-17T12:31:24.096Z,46.65
2018-05-17T12:33:57.632Z,46.65
2018-05-17T12:36:31.444Z,46.33
2018-05-17T12:39:06.044Z,47.43
2018-05-17T12:41:39.649Z,46.52
2018-05-17T12:44:13.304Z,46.48
2018-05-17T12:46:46.938Z,46.95
2018-05-17T12:49:20.687Z,46.66
2018-05-17T12:51:54.240Z,43.63
2018-05-17T12:54:27.808Z,44.72
2018-05-17T12:57:01.336Z,43.87
2018-05-17T12:59:35.096Z,43.56
2018-05-17T13:02:08.664Z,42.21
2018-05-17T13:04:42.427Z,44.59
2018-05-17T13:07:16.260Z,44.01
2018-05-17T13:09:49.904Z,44.18
2018-05-17T13:12:23.779Z,43.41
2018-05-17T13:14:57.573Z,42.41
2018-05-17T13:17:31.214Z,42.69
2018-05-17T13:20:04.777Z,43.26
2018-05-17T13:22:38.322Z,43.70
2018-05-17T13:25:12.117Z,43.12
2018-05-17T13:27:45.753Z,42.03
2018-05-17T13:30:19.435Z,42.42
2018-05-17T13:32:53.048Z,43.05
2018-05-17T13:35:26.644Z,41.05
2018-05-17T13:38:00.173Z,41.64
2018-05-17T13:40:33.691Z,42.19
2018-05-17T13:43:07.249Z,41.45
2018-05-17T13:45:40.820Z,40.97
2018-05-17T13:48:14.526Z,40.80
2018-05-17T13:50:48.187Z,40.49
2018-05-17T13:53:21.899Z,41.59
2018-05-17T13:55:55.433Z,39.70
2018-05-17T13:58:29.044Z,39.67
2018-05-17T14:01:02.788Z,38.44
2018-05-17T14:03:36.365Z,39.54
2018-05-17T14:06:10.057Z,38.93
2018-05-17T14:08:43.588Z,39.53
2018-05-17T14:11:17.108Z,39.23
2018-05-17T14:13:51.073Z,37.42
2018-05-17T14:16:24.559Z,38.36
2018-05-17T14:18:58.240Z,36.70
2018-05-17T14:21:31.823Z,36.00
2018-05-17T14:24:05.579Z,35.74
2018-05-17T14:26:39.199Z,35.76
2018-05-17T14:29:12.860Z,34.75
2018-05-17T14:31:46.900Z,33.06
2018-05-17T14:34:20.383Z,33.66
2018-05-17T14:36:54.143Z,33.70
2018-05-17T14:39:27.804Z,33.05
2018-05-17T14:42:01.602Z,31.92
2018-05-17T14:44:35.286Z,31.67
2018-05-17T14:47:08.899Z,32.24
2018-05-17T14:49:42.655Z,30.91
2018-05-17T14:52:16.348Z,31.90
2018-05-17T14:54:49.913Z,30.99
2018-05-17T14:57:23.671Z,31.50
2018-05-17T14:59:57.433Z,29.56
2018-05-17T15:02:31.000Z,31.56
2018-05-17T15:05:04.523Z,31.93
2018-05-17T15:07:38.047Z,32.72
2018-05-17T15:10:11.738Z,32.64
2018-05-17T15:12:45.343Z,32.21
2018-05-17T15:15:19.096Z,32.50
2018-05-17T15:17:52.636Z,32.45
2018-05-17T15:20:26.275Z,33.77
2018-05-17T15:22:59.925Z,33.91
2018-05-17T15:25:33.472Z,34.19
2018-05-17T15:28:07.044Z,36.04
2018-05-17T15:30:40.800Z,36.64
2018-05-17T15:33:14.367Z,35.86
2018-05-17T15:35:47.997Z,36.78
2018-05-17T15:38:21.744Z,37.48
2018-05-17T15:40:55.295Z,37.55
2018-05-17T15:43:28.860Z,38.08
2018-05-17T15:46:02.607Z,38.50
2018-05-17T15:48:36.657Z,38.26
2018-05-17T15:51:10.311Z,38.58
2018-05-17T15:53:44.272Z,38.20
2018-05-17T15:56:17.941Z,37.92
2018-05-17T15:58:51.467Z,38.11
2018-05-17T16:01:25.041Z,39.86
2018-05-17T16:03:58.728Z,39.59
2018-05-17T16:06:32.379Z,39.62
2018-05-17T16:09:06.086Z,40.04
2018-05-17T16:11:39.773Z,40.32
2018-05-17T16:14:13.422Z,41.41
2018-05-17T16:16:47.153Z,41.36
2018-05-17T16:19:20.740Z,41.56
2018-05-17T16:21:54.483Z,41.80
2018-05-17T16:24:28.141Z,41.92
2018-05-17T16:27:01.829Z,42.16
2018-05-17T16:29:35.720Z,43.50
2018-05-17T16:32:09.381Z,42.93
2018-05-17T16:34:43.085Z,43.55
2018-05-17T16:37:16.712Z,44.00
2018-05-17T16:39:50.320Z,43.69
2018-05-17T16:42:23.922Z,44.65
2018-05-17T16:44:57.744Z,44.21
2018-05-17T16:47:31.425Z,44.03
2018-05-17T16:50:04.949Z,44.64
2018-05-17T16:52:38.678Z,44.98
2018-05-17T16:55:12.475Z,45.81
2018-05-17T16:57:46.259Z,45.87
2018-05-17T17:00:20.109Z,46.13
2018-05-17T17:02:53.835Z,46.14
2018-05-17T17:05:27.525Z,46.84
2018-05-17T17:08:01.245Z,47.33
2018-05-17T17:10:34.841Z,48.04
2018-05-17T17:13:08.503Z,47.71
2018-05-17T17:15:42.249Z,48.20
2018-05-17T17:18:16.029Z,48.14
2018-05-17T17:20:49.604Z,48.86
2018-05-17T17:23:23.281Z,49.54
2018-05-17T17:25:57.331Z,49.28
2018-05-17T17:28:31.242Z,49.34
2018-05-17T17:31:04.981Z,49.92
2018-05-17T17:33:38.948Z,49.52
2018-05-17T17:36:12.719Z,49.59
2018-05-17T17:38:46.347Z,50.13
2018-05-17T17:41:19.970Z,51.42
2018-05-17T17:43:53.645Z,50.61
2018-05-17T17:46:27.576Z,50.92
2018-05-17T17:49:01.340Z,51.20
2018-05-17T17:51:34.983Z,51.73
2018-05-17T17:54:08.769Z,51.83
2018-05-17T17:56:42.536Z,52.25
2018-05-17T17:59:16.149Z,52.15
2018-05-17T18:01:49.767Z,52.49
2018-05-17T18:04:23.406Z,52.73
2018-05-17T18:06:56.953Z,53.15
2018-05-17T18:09:30.771Z,53.91
2018-05-17T18:12:04.552Z,54.04
2018-05-17T18:14:38.162Z,54.11
2018-05-17T18:17:11.949Z,54.04
2018-05-17T18:19:45.682Z,53.81
2018-05-17T18:22:19.381Z,54.42
2018-05-17T18:24:53.133Z,54.27
2018-05-17T18:27:26.745Z,55.05
2018-05-17T18:30:00.516Z,55.19
2018-05-17T18:32:34.133Z,55.30
2018-05-17T18:35:07.864Z,55.72
2018-05-17T18:37:41.597Z,55.72
2018-05-17T18:40:15.301Z,56.07
2018-05-17T18:42:49.018Z,56.00
2018-05-17T18:45:22.731Z,55.98
2018-05-17T18:47:56.672Z,56.66
2018-05-17T18:50:30.299Z,56.61
2018-05-17T18:53:03.907Z,56.89
2018-05-17T18:55:37.779Z,57.26
2018-05-17T18:58:11.397Z,57.78
2018-05-17T19:00:45.085Z,58.08
2018-05-17T19:03:18.708Z,58.82
2018-05-17T19:05:52.377Z,58.75
2018-05-17T19:08:26.065Z,59.05
2018-05-17T19:10:59.831Z,59.55
2018-05-17T19:13:33.476Z,59.86
2018-05-17T19:16:07.229Z,60.26
2018-05-17T19:18:40.794Z,60.55
2018-05-17T19:21:14.501Z,60.65
2018-05-17T19:23:48.311Z,60.88
2018-05-17T19:26:22.065Z,61.00
2018-05-17T19:28:55.768Z,61.55
2018-05-17T19:31:29.499Z,61.74
2018-05-17T19:34:03.245Z,61.93
2018-05-17T19:36:37.261Z,62.39
2018-05-17T19:39:10.926Z,62.66
2018-05-17T19:41:44.620Z,63.06
2018-05-17T19:44:18.181Z,63.38
2018-05-17T19:46:51.869Z,63.60
2018-05-17T19:49:25.441Z,63.98
2018-05-17T19:51:59.217Z,64.25
2018-05-17T19:54:33.009Z,64.56
2018-05-17T19:57:06.757Z,64.81
2018-05-17T19:59:40.401Z,65.11
2018-05-17T20:02:14.137Z,65.15
2018-05-17T20:04:47.666Z,65.28
2018-05-17T20:07:21.425Z,65.41
2018-05-17T20:09:55.192Z,65.40
2018-05-17T20:12:28.896Z,65.54
2018-05-17T20:15:02.724Z,65.67
2018-05-17T20:17:36.295Z,65.25
2018-05-17T20:20:10.046Z,65.52
2018-05-17T20:22:43.824Z,65.51
2018-05-17T20:25:17.452Z,64.73
2018-05-17T20:27:51.184Z,64.55
2018-05-17T20:30:25.061Z,64.85
2018-05-17T20:32:58.688Z,64.94
2018-05-17T20:35:32.353Z,64.95
2018-05-17T20:38:06.042Z,65.43
2018-05-17T20:40:39.756Z,65.70
2018-05-17T20:43:13.349Z,65.81
2018-05-17T20:45:47.169Z,66.08
2018-05-17T20:48:20.877Z,66.28
2018-05-17T20:50:54.729Z,66.24
2018-05-17T20:53:28.405Z,66.21
2018-05-17T20:56:02.157Z,66.52
2018-05-17T20:58:35.758Z,66.80
2018-05-17T21:01:09.394Z,66.71
2018-05-17T21:03:43.009Z,66.79
2018-05-17T21:06:16.736Z,67.19
2018-05-17T21:08:50.564Z,67.55
2018-05-17T21:11:24.128Z,68.00
2018-05-17T21:13:57.708Z,68.37
2018-05-17T21:16:31.364Z,68.23
2018-05-17T21:19:05.011Z,68.48
2018-05-17T21:21:38.620Z,68.91
2018-05-17T21:24:12.252Z,68.66
2018-05-17T21:26:45.880Z,68.68
2018-05-17T21:29:19.416Z,69.13
2018-05-17T21:31:53.093Z,69.64
2018-05-17T21:34:26.753Z,69.92
2018-05-17T21:37:00.404Z,70.08
2018-05-17T21:39:34.100Z,70.35
2018-05-17T21:42:07.872Z,70.59
2018-05-17T21:44:41.500Z,71.10
2018-05-17T21:47:15.033Z,71.37
2018-05-17T21:49:48.615Z,71.70
2018-05-17T21:52:22.575Z,71.96
2018-05-17T21:54:56.281Z,71.98
2018-05-17T21:57:29.963Z,72.31
2018-05-17T22:00:03.655Z,72.64
2018-05-17T22:02:37.168Z,72.60
2018-05-17T22:05:10.835Z,72.97
2018-05-17T22:07:44.517Z,73.14
2018-05-17T22:10:18.171Z,73.68
2018-05-17T22:12:51.730Z,73.90
2018-05-17T22:15:25.359Z,74.13
2018-05-17T22:17:58.993Z,74.31
2018-05-17T22:20:32.644Z,74.50
2018-05-17T22:23:06.373Z,74.93
2018-05-17T22:25:41.032Z,75.15
2018-05-17T22:28:14.780Z,75.18
2018-05-17T22:30:48.320Z,75.39
2018-05-17T22:33:21.892Z,75.29
2018-05-17T22:35:55.568Z,75.69
2018-05-17T22:38:29.208Z,75.55
2018-05-17T22:41:02.919Z,75.91
2018-05-17T22:43:36.520Z,76.24
2018-05-17T22:46:10.194Z,76.10
2018-05-17T22:48:44.497Z,76.24
2018-05-17T22:51:18.044Z,76.36
2018-05-17T22:53:51.772Z,76.90
2018-05-17T22:56:37.227Z,76.77
2018-05-17T22:59:10.993Z,76.96
2018-05-17T23:01:44.639Z,76.94
2018-05-17T23:04:18.248Z,77.14
2018-05-17T23:06:51.812Z,77.21
2018-05-17T23:09:25.336Z,77.28
2018-05-17T23:11:59.068Z,77.47
2018-05-17T23:14:32.744Z,77.69
2018-05-17T23:17:25.299Z,77.67
2018-05-17T23:19:58.947Z,77.43
2018-05-17T23:22:36.316Z,77.62
2018-05-17T23:25:09.912Z,77.54
2018-05-17T23:27:43.573Z,77.70
2018-05-17T23:30:17.237Z,77.94
2018-05-17T23:32:50.861Z,77.64
2018-05-17T23:38:36.532Z,77.70
2018-05-17T23:41:22.111Z,77.59
2018-05-17T23:43:55.884Z,77.75
2018-05-17T23:46:29.487Z,77.74
2018-05-17T23:49:03.259Z,77.54
2018-05-17T23:51:37.148Z,77.36
2018-05-17T23:54:10.728Z,77.33
2018-05-17T23:56:44.311Z,76.93
2018-05-17T23:59:17.872Z,76.86
